Terminal Aerodrome Forecast
Issued by NWS Grand Forks, ND

Home | Current Version | Previous Version | Text Only | Print | Product List | Glossary Off
Versions: 1 2 3 4 5 6 7 8 9 10 11 12 13 14 15 16

000
FTUS43 KFGF 261600 AAA
TAFGFK
TAF AMD
KGFK 261631Z 2617/2712 28014G20KT P6SM FEW250
     FM261800 27016G25KT P6SM BKN040
     FM262000 27019G28KT P6SM VCSH BKN050
     FM270100 29011KT P6SM OVC040
     FM271000 32012KT P6SM OVC025=

USA.gov is the U.S. government's official web portal to all federal, state and local government web resources and services.